Time;durP1;ratioP1;P1;durP2;ratioP2;P2;SDS_P1;SDS_P2;PMS_P1;PMS_P2;Temp;Humidity;BMP_temperature;BMP_pressure;BME280_temperature;BME280_humidity;BME280_pressure;Samples;Min_cycle;Max_cycle;Signal;HPM_P1;HPM_P2
2022/09/15 00:00:04;;;;;;;;;;;;;;;;;;2131769;27;20215;-42
2022/09/15 00:01:05;;;;;;;;;;;;;;;;;;2131760;27;19923;-42
2022/09/15 00:02:07;;;;;;;;;;;;;;;;;;2131745;27;19930;-42
2022/09/15 00:03:07;;;;;;;;;;;;;;;;;;2131681;27;20286;-42
2022/09/15 00:04:08;;;;;;;;;;;;;;;;;;2131725;27;19985;-42
2022/09/15 00:05:09;;;;;;;;;;;;;;;;;;2131623;27;19931;-42
2022/09/15 00:06:10;;;;;;;;;;;;;;;;;;2131840;27;19961;-42
2022/09/15 00:07:11;;;;;;;;;;;;;;;;;;2131710;27;20299;-42
2022/09/15 00:08:12;;;;;;;;;;;;;;;;;;2131668;27;19946;-42
2022/09/15 00:09:12;;;;;;;;;;;;;;;;;;2131676;27;19931;-42
2022/09/15 00:10:13;;;;;;;;;;;;;;;;;;2131660;27;19924;-43
2022/09/15 00:11:14;;;;;;;;;;;;;;;;;;2131397;27;19978;-42
2022/09/15 00:12:15;;;;;;;;;;;;;;;;;;2131741;27;19962;-42
2022/09/15 00:13:16;;;;;;;;;;;;;;;;;;2131762;27;19927;-42
2022/09/15 00:14:17;;;;;;;;;;;;;;;;;;2131805;27;20399;-42
2022/09/15 00:15:18;;;;;;;;;;;;;;;;;;2131728;27;19927;-42
2022/09/15 00:16:19;;;;;;;;;;;;;;;;;;2131672;27;19923;-42
2022/09/15 00:17:20;;;;;;;;;;;;;;;;;;2131565;27;20353;-42
2022/09/15 00:18:21;;;;;;;;;;;;;;;;;;2131751;27;19923;-43
2022/09/15 00:19:21;;;;;;;;;;;;;;;;;;2131580;27;20288;-42
2022/09/15 00:20:22;;;;;;;;;;;;;;;;;;2131835;27;19958;-42
2022/09/15 00:21:23;;;;;;;;;;;;;;;;;;2131766;27;19923;-45
2022/09/15 00:22:24;;;;;;;;;;;;;;;;;;2131495;27;19923;-45
2022/09/15 00:23:25;;;;;;;;;;;;;;;;;;2131666;27;19946;-44
2022/09/15 00:24:26;;;;;;;;;;;;;;;;;;2131414;27;19927;-44
2022/09/15 00:25:27;;;;;;;;;;;;;;;;;;2131495;27;19923;-45
2022/09/15 00:26:28;;;;;;;;;;;;;;;;;;2131824;27;19926;-46
2022/09/15 00:27:29;;;;;;;;;;;;;;;;;;2131760;27;19923;-45
2022/09/15 00:28:29;;;;;;;;;;;;;;;;;;2131619;27;19927;-46
2022/09/15 00:29:30;;;;;;;;;;;;;;;;;;2131597;27;19977;-44
2022/09/15 00:30:31;;;;;;;;;;;;;;;;;;2131489;27;19966;-44
2022/09/15 00:31:32;;;;;;;;;;;;;;;;;;2131475;27;20279;-45
2022/09/15 00:32:33;;;;;;;;;;;;;;;;;;2131581;27;20017;-45
2022/09/15 00:33:34;;;;;;;;;;;;;;;;;;2131584;27;19930;-44
2022/09/15 00:34:35;;;;;;;;;;;;;;;;;;2131521;27;20395;-45
2022/09/15 00:35:35;;;;;;;;;;;;;;;;;;2131686;27;19923;-46
2022/09/15 00:36:36;;;;;;;;;;;;;;;;;;2131584;27;19954;-45
2022/09/15 00:37:37;;;;;;;;;;;;;;;;;;2131486;27;19923;-45
2022/09/15 00:38:38;;;;;;;;;;;;;;;;;;2131529;27;20021;-44
2022/09/15 00:39:39;;;;;;;;;;;;;;;;;;2131486;27;19969;-44
2022/09/15 00:40:40;;;;;;;;;;;;;;;;;;2131604;27;20279;-44
2022/09/15 00:41:41;;;;;;;;;;;;;;;;;;2131393;27;19930;-46
2022/09/15 00:42:41;;;;;;;;;;;;;;;;;;2132912;27;20034;-44
2022/09/15 00:43:42;;;;;;;;;;;;;;;;;;2132902;27;19923;-44
2022/09/15 00:44:43;;;;;;;;;;;;;;;;;;2133114;27;19923;-44
2022/09/15 00:45:44;;;;;;;;;;;;;;;;;;2133041;27;19923;-46
2022/09/15 00:46:45;;;;;;;;;;;;;;;;;;2133002;27;19923;-46
2022/09/15 00:47:59;;;;;;;;;;;;;;;;;;2133037;27;20029;-44
2022/09/15 00:49:00;;;;;;;;;;;;;;;;;;2133109;27;20371;-44
2022/09/15 00:50:00;;;;;;;;;;;;;;;;;;2132936;27;19923;-44
2022/09/15 00:51:01;;;;;;;;;;;;;;;;;;2132840;27;19970;-45
2022/09/15 00:52:02;;;;;;;;;;;;;;;;;;2132965;27;19929;-44
2022/09/15 00:53:03;;;;;;;;;;;;;;;;;;2132888;27;19930;-46
2022/09/15 00:54:04;;;;;;;;;;;;;;;;;;2133067;27;19934;-44
2022/09/15 00:55:05;;;;;;;;;;;;;;;;;;2132990;27;20277;-45
2022/09/15 00:56:06;;;;;;;;;;;;;;;;;;2133149;27;20366;-45
2022/09/15 00:57:06;;;;;;;;;;;;;;;;;;2132854;27;19942;-45
2022/09/15 00:58:07;;;;;;;;;;;;;;;;;;2133099;27;19923;-44
2022/09/15 00:59:08;;;;;;;;;;;;;;;;;;2132933;27;20298;-45
2022/09/15 01:00:10;;;;;;;;;;;;;;;;;;2132869;27;19923;-45
2022/09/15 01:01:10;;;;;;;;;;;;;;;;;;2132951;27;19934;-45
2022/09/15 01:02:11;;;;;;;;;;;;;;;;;;2132730;27;19930;-44
2022/09/15 01:03:12;;;;;;;;;;;;;;;;;;2132931;27;20005;-46
2022/09/15 01:04:13;;;;;;;;;;;;;;;;;;2132845;27;19923;-45
2022/09/15 01:05:14;;;;;;;;;;;;;;;;;;2132821;27;20029;-44
2022/09/15 01:06:15;;;;;;;;;;;;;;;;;;2132783;27;19930;-45
2022/09/15 01:07:16;;;;;;;;;;;;;;;;;;2132949;27;19923;-44
2022/09/15 01:08:17;;;;;;;;;;;;;;;;;;2132770;27;19977;-46
2022/09/15 01:09:17;;;;;;;;;;;;;;;;;;2132911;27;19922;-45
2022/09/15 01:10:18;;;;;;;;;;;;;;;;;;2132832;27;19926;-45
2022/09/15 01:11:19;;;;;;;;;;;;;;;;;;2132692;27;19946;-45
2022/09/15 01:12:20;;;;;;;;;;;;;;;;;;2132893;27;19930;-44
2022/09/15 01:13:21;;;;;;;;;;;;;;;;;;2132768;27;19923;-44
2022/09/15 01:14:22;;;;;;;;;;;;;;;;;;2132922;27;19923;-46
2022/09/15 01:15:22;;;;;;;;;;;;;;;;;;2132696;27;19930;-44
2022/09/15 01:16:24;;;;;;;;;;;;;;;;;;2132812;27;19923;-44
2022/09/15 01:17:25;;;;;;;;;;;;;;;;;;2132704;27;19923;-45
2022/09/15 01:18:26;;;;;;;;;;;;;;;;;;2132793;27;20444;-45
2022/09/15 01:19:27;;;;;;;;;;;;;;;;;;2132565;27;20189;-45
2022/09/15 01:20:28;;;;;;;;;;;;;;;;;;2132553;27;19923;-44
2022/09/15 01:21:30;;;;;;;;;;;;;;;;;;2132831;27;19962;-42
2022/09/15 01:22:31;;;;;;;;;;;;;;;;;;2132901;27;19923;-42
2022/09/15 01:23:31;;;;;;;;;;;;;;;;;;2132684;27;20067;-42
2022/09/15 01:24:32;;;;;;;;;;;;;;;;;;2132772;27;19930;-42
2022/09/15 01:25:34;;;;;;;;;;;;;;;;;;2132621;27;19927;-42
2022/09/15 01:26:34;;;;;;;;;;;;;;;;;;2132602;27;19976;-42
2022/09/15 01:27:35;;;;;;;;;;;;;;;;;;2132668;27;20022;-42
2022/09/15 01:28:42;;;;;;;;;;;;;;;;;;2132695;27;20034;-42
2022/09/15 01:29:44;;;;;;;;;;;;;;;;;;2132852;27;19930;-42
2022/09/15 01:30:45;;;;;;;;;;;;;;;;;;2132541;27;20504;-42
2022/09/15 01:33:04;;;;;;;;;;;;;;;;;;2131850;27;19931;-42
2022/09/15 01:34:05;;;;;;;;;;;;;;;;;;2132624;27;19923;-42
2022/09/15 01:35:06;;;;;;;;;;;;;;;;;;2132969;27;19930;-45
2022/09/15 01:36:07;;;;;;;;;;;;;;;;;;2132630;27;19923;-44
2022/09/15 01:37:07;;;;;;;;;;;;;;;;;;2132683;27;19929;-45
2022/09/15 01:38:08;;;;;;;;;;;;;;;;;;2132603;27;19927;-44
2022/09/15 01:39:09;;;;;;;;;;;;;;;;;;2132591;27;19923;-44
2022/09/15 01:40:10;;;;;;;;;;;;;;;;;;2132607;27;20419;-44
2022/09/15 01:41:11;;;;;;;;;;;;;;;;;;2132940;27;19960;-42
2022/09/15 01:42:12;;;;;;;;;;;;;;;;;;2132587;27;19926;-42
2022/09/15 01:43:13;;;;;;;;;;;;;;;;;;2132517;27;20307;-41
2022/09/15 01:44:14;;;;;;;;;;;;;;;;;;2132577;27;19923;-42
2022/09/15 01:45:15;;;;;;;;;;;;;;;;;;2132889;27;19927;-42
2022/09/15 01:46:16;;;;;;;;;;;;;;;;;;2132601;27;19923;-42
2022/09/15 01:47:17;;;;;;;;;;;;;;;;;;2132536;27;19930;-42
2022/09/15 01:48:18;;;;;;;;;;;;;;;;;;2132680;27;19933;-42
2022/09/15 01:49:19;;;;;;;;;;;;;;;;;;2132583;27;19976;-42
2022/09/15 01:50:20;;;;;;;;;;;;;;;;;;2132633;27;19927;-42
2022/09/15 01:51:21;;;;;;;;;;;;;;;;;;2132600;27;19999;-42
2022/09/15 01:52:22;;;;;;;;;;;;;;;;;;2132598;27;19923;-42
2022/09/15 01:53:23;;;;;;;;;;;;;;;;;;2132053;27;19923;-42
2022/09/15 01:54:24;;;;;;;;;;;;;;;;;;2132550;27;19970;-42
2022/09/15 01:55:25;;;;;;;;;;;;;;;;;;2132661;27;19923;-42
2022/09/15 01:56:26;;;;;;;;;;;;;;;;;;2132696;27;19930;-42
2022/09/15 01:57:27;;;;;;;;;;;;;;;;;;2132689;27;19934;-42
2022/09/15 01:58:27;;;;;;;;;;;;;;;;;;2132541;27;20523;-42
2022/09/15 01:59:28;;;;;;;;;;;;;;;;;;2132626;27;20411;-42
2022/09/15 02:00:29;;;;;;;;;;;;;;;;;;2132466;27;19948;-42
2022/09/15 02:01:30;;;;;;;;;;;;;;;;;;2132410;27;19923;-42
2022/09/15 02:02:31;;;;;;;;;;;;;;;;;;2132384;27;20052;-42
2022/09/15 02:03:32;;;;;;;;;;;;;;;;;;2132498;27;19930;-42
2022/09/15 02:04:33;;;;;;;;;;;;;;;;;;2132537;27;19923;-42
2022/09/15 02:05:34;;;;;;;;;;;;;;;;;;2132667;27;20009;-42
2022/09/15 02:06:36;;;;;;;;;;;;;;;;;;2132509;27;19950;-42
2022/09/15 02:07:37;;;;;;;;;;;;;;;;;;2132396;27;19927;-42
2022/09/15 02:08:38;;;;;;;;;;;;;;;;;;2132444;27;19974;-42
2022/09/15 02:09:38;;;;;;;;;;;;;;;;;;2132454;27;19927;-42
2022/09/15 02:10:39;;;;;;;;;;;;;;;;;;2132452;27;19923;-42
2022/09/15 02:11:41;;;;;;;;;;;;;;;;;;2132164;27;19927;-42
2022/09/15 02:12:42;;;;;;;;;;;;;;;;;;2132385;27;20391;-42
2022/09/15 02:13:44;;;;;;;;;;;;;;;;;;2132338;27;19923;-42
2022/09/15 02:14:46;;;;;;;;;;;;;;;;;;2132565;27;19923;-42
2022/09/15 02:15:47;;;;;;;;;;;;;;;;;;2132457;27;19931;-42
2022/09/15 02:16:48;;;;;;;;;;;;;;;;;;2132334;27;20364;-44
2022/09/15 02:17:53;;;;;;;;;;;;;;;;;;2132456;27;19923;-45
2022/09/15 02:18:54;;;;;;;;;;;;;;;;;;2132296;27;19923;-45
2022/09/15 02:19:55;;;;;;;;;;;;;;;;;;2132463;27;19923;-45
2022/09/15 02:20:58;;;;;;;;;;;;;;;;;;2132348;27;19930;-44
2022/09/15 02:21:59;;;;;;;;;;;;;;;;;;2132256;27;20497;-46
2022/09/15 02:22:59;;;;;;;;;;;;;;;;;;2132260;27;19930;-44
2022/09/15 02:24:02;;;;;;;;;;;;;;;;;;2132516;27;20068;-42
2022/09/15 02:25:03;;;;;;;;;;;;;;;;;;2132229;27;19927;-42
2022/09/15 02:26:03;;;;;;;;;;;;;;;;;;2132283;27;19980;-42
2022/09/15 02:27:04;;;;;;;;;;;;;;;;;;2132279;27;19927;-42
2022/09/15 02:28:05;;;;;;;;;;;;;;;;;;2132527;27;19945;-42
2022/09/15 02:29:06;;;;;;;;;;;;;;;;;;2132391;27;20288;-42
2022/09/15 02:30:07;;;;;;;;;;;;;;;;;;2132427;27;20386;-42
2022/09/15 02:31:07;;;;;;;;;;;;;;;;;;2132184;27;19923;-42
2022/09/15 02:32:08;;;;;;;;;;;;;;;;;;2132159;27;19933;-42
2022/09/15 02:33:09;;;;;;;;;;;;;;;;;;2132202;27;19968;-42
2022/09/15 02:34:10;;;;;;;;;;;;;;;;;;2132355;27;20369;-42
2022/09/15 02:35:12;;;;;;;;;;;;;;;;;;2132205;27;19923;-42
2022/09/15 02:36:13;;;;;;;;;;;;;;;;;;2132276;27;19923;-42
2022/09/15 02:37:13;;;;;;;;;;;;;;;;;;2132110;27;19923;-42
2022/09/15 02:38:14;;;;;;;;;;;;;;;;;;2132281;27;19959;-42
2022/09/15 02:39:15;;;;;;;;;;;;;;;;;;2132374;27;20380;-42
2022/09/15 02:40:16;;;;;;;;;;;;;;;;;;2132346;27;20017;-42
2022/09/15 02:41:17;;;;;;;;;;;;;;;;;;2132088;27;19958;-42
2022/09/15 02:42:18;;;;;;;;;;;;;;;;;;2132298;27;20420;-41
2022/09/15 02:43:18;;;;;;;;;;;;;;;;;;2132148;27;20345;-42
2022/09/15 02:44:19;;;;;;;;;;;;;;;;;;2132277;27;19927;-42
2022/09/15 02:45:20;;;;;;;;;;;;;;;;;;2132340;27;19968;-42
2022/09/15 02:46:21;;;;;;;;;;;;;;;;;;2132357;27;19923;-45
2022/09/15 02:47:22;;;;;;;;;;;;;;;;;;2132081;27;19923;-45
2022/09/15 02:48:24;;;;;;;;;;;;;;;;;;2132120;27;19972;-47
2022/09/15 02:49:24;;;;;;;;;;;;;;;;;;2132285;27;19923;-45
2022/09/15 02:50:25;;;;;;;;;;;;;;;;;;2132074;27;20018;-45
2022/09/15 02:51:26;;;;;;;;;;;;;;;;;;2132179;27;19923;-44
2022/09/15 02:52:27;;;;;;;;;;;;;;;;;;2132027;27;19927;-45
2022/09/15 02:53:28;;;;;;;;;;;;;;;;;;2132119;27;19980;-45
2022/09/15 02:54:29;;;;;;;;;;;;;;;;;;2132325;27;19927;-42
2022/09/15 02:55:30;;;;;;;;;;;;;;;;;;2132165;27;19923;-42
2022/09/15 02:56:30;;;;;;;;;;;;;;;;;;2131971;27;19923;-42
2022/09/15 02:57:31;;;;;;;;;;;;;;;;;;2132394;27;20391;-44
2022/09/15 02:58:32;;;;;;;;;;;;;;;;;;2132182;27;20409;-44
2022/09/15 03:00:49;;;;;;;;;;;;;;;;;;2131274;27;19927;-45
2022/09/15 03:01:50;;;;;;;;;;;;;;;;;;2132099;27;19923;-45
2022/09/15 03:02:52;;;;;;;;;;;;;;;;;;2132153;27;19923;-46
2022/09/15 03:03:53;;;;;;;;;;;;;;;;;;2131979;27;20410;-46
2022/09/15 03:04:53;;;;;;;;;;;;;;;;;;2131014;27;19923;-45
2022/09/15 03:06:15;;;;;;;;;;;;;;;;;;2132063;27;20429;-45
2022/09/15 03:07:15;;;;;;;;;;;;;;;;;;2132095;27;20318;-46
2022/09/15 03:08:16;;;;;;;;;;;;;;;;;;2132009;27;19923;-44
2022/09/15 03:09:17;;;;;;;;;;;;;;;;;;2132013;27;20034;-45
2022/09/15 03:10:17;;;;;;;;;;;;;;;;;;2132244;27;19923;-42
2022/09/15 03:11:18;;;;;;;;;;;;;;;;;;2131556;27;20328;-42
2022/09/15 03:12:19;;;;;;;;;;;;;;;;;;2131942;27;20014;-42
2022/09/15 03:13:20;;;;;;;;;;;;;;;;;;2131967;27;19930;-42
2022/09/15 03:14:21;;;;;;;;;;;;;;;;;;2132010;27;19968;-42
2022/09/15 03:15:22;;;;;;;;;;;;;;;;;;2131940;27;19955;-42
2022/09/15 03:16:23;;;;;;;;;;;;;;;;;;2131897;27;19972;-42
2022/09/15 03:17:24;;;;;;;;;;;;;;;;;;2131901;27;19971;-42
2022/09/15 03:18:25;;;;;;;;;;;;;;;;;;2132122;27;19930;-42
2022/09/15 03:19:26;;;;;;;;;;;;;;;;;;2132009;27;19981;-42
2022/09/15 03:20:26;;;;;;;;;;;;;;;;;;2132114;27;19923;-46
2022/09/15 03:21:28;;;;;;;;;;;;;;;;;;2131763;27;19927;-45
2022/09/15 03:22:29;;;;;;;;;;;;;;;;;;2132054;27;19927;-45
2022/09/15 03:23:29;;;;;;;;;;;;;;;;;;2131954;27;19958;-47
2022/09/15 03:24:30;;;;;;;;;;;;;;;;;;2132038;27;20375;-45
2022/09/15 03:25:31;;;;;;;;;;;;;;;;;;2132161;27;20390;-45
2022/09/15 03:26:32;;;;;;;;;;;;;;;;;;2131935;27;19975;-45
2022/09/15 03:27:33;;;;;;;;;;;;;;;;;;2132051;27;19936;-45
2022/09/15 03:28:34;;;;;;;;;;;;;;;;;;2131864;27;20294;-44
2022/09/15 03:29:34;;;;;;;;;;;;;;;;;;2132056;27;19930;-45
2022/09/15 03:30:35;;;;;;;;;;;;;;;;;;2131789;27;20368;-44
2022/09/15 03:31:36;;;;;;;;;;;;;;;;;;2132204;27;19973;-45
2022/09/15 03:32:37;;;;;;;;;;;;;;;;;;2131914;27;20284;-45
2022/09/15 03:33:38;;;;;;;;;;;;;;;;;;2131871;27;19924;-46
2022/09/15 03:34:39;;;;;;;;;;;;;;;;;;2132087;27;19931;-42
2022/09/15 03:35:39;;;;;;;;;;;;;;;;;;2131931;27;19923;-42
2022/09/15 03:36:41;;;;;;;;;;;;;;;;;;2131789;27;19934;-42
2022/09/15 03:37:41;;;;;;;;;;;;;;;;;;2131822;27;19927;-42
2022/09/15 03:38:42;;;;;;;;;;;;;;;;;;2131822;27;19973;-42
2022/09/15 03:39:43;;;;;;;;;;;;;;;;;;2132017;27;19923;-42
2022/09/15 03:40:44;;;;;;;;;;;;;;;;;;2131923;27;19923;-42
2022/09/15 03:41:45;;;;;;;;;;;;;;;;;;2131893;27;19981;-42
2022/09/15 03:42:46;;;;;;;;;;;;;;;;;;2131831;27;20372;-42
2022/09/15 03:43:47;;;;;;;;;;;;;;;;;;2131754;27;19980;-42
2022/09/15 03:44:48;;;;;;;;;;;;;;;;;;2131951;27;20428;-42
2022/09/15 03:45:48;;;;;;;;;;;;;;;;;;2131875;27;19934;-42
2022/09/15 03:46:50;;;;;;;;;;;;;;;;;;2131818;27;19923;-42
2022/09/15 03:47:50;;;;;;;;;;;;;;;;;;2131916;27;19923;-42
2022/09/15 03:48:51;;;;;;;;;;;;;;;;;;2131942;27;19923;-42
2022/09/15 03:49:52;;;;;;;;;;;;;;;;;;2131891;27;20356;-42
2022/09/15 03:50:53;;;;;;;;;;;;;;;;;;2131873;27;19971;-42
2022/09/15 03:51:54;;;;;;;;;;;;;;;;;;2131917;27;20037;-42
2022/09/15 03:52:54;;;;;;;;;;;;;;;;;;2131701;27;20050;-42
2022/09/15 03:53:59;;;;;;;;;;;;;;;;;;2131745;27;19927;-42
2022/09/15 03:54:59;;;;;;;;;;;;;;;;;;2131719;27;19923;-42
2022/09/15 03:56:00;;;;;;;;;;;;;;;;;;2131753;27;19974;-42
2022/09/15 03:57:02;;;;;;;;;;;;;;;;;;2131801;27;19962;-42
2022/09/15 03:58:03;;;;;;;;;;;;;;;;;;2131857;27;19923;-42
2022/09/15 03:59:04;;;;;;;;;;;;;;;;;;2131748;27;19970;-42
2022/09/15 04:00:06;;;;;;;;;;;;;;;;;;2131722;27;19923;-42
2022/09/15 04:01:07;;;;;;;;;;;;;;;;;;2131770;27;19931;-42
2022/09/15 04:02:08;;;;;;;;;;;;;;;;;;2131517;27;20042;-42
2022/09/15 04:03:08;;;;;;;;;;;;;;;;;;2131722;27;20018;-42
2022/09/15 04:04:09;;;;;;;;;;;;;;;;;;2131648;27;19927;-42
2022/09/15 04:05:12;;;;;;;;;;;;;;;;;;2131806;27;19958;-42
2022/09/15 04:06:13;;;;;;;;;;;;;;;;;;2131785;27;19923;-42
2022/09/15 04:07:14;;;;;;;;;;;;;;;;;;2131673;27;19930;-42
2022/09/15 04:08:15;;;;;;;;;;;;;;;;;;2123467;27;19930;-42
2022/09/15 04:09:16;;;;;;;;;;;;;;;;;;2126980;27;19931;-42
2022/09/15 04:10:17;;;;;;;;;;;;;;;;;;2131829;27;19942;-42
2022/09/15 04:11:18;;;;;;;;;;;;;;;;;;2128864;27;20329;-42
2022/09/15 04:12:19;;;;;;;;;;;;;;;;;;2123487;28;19949;-42
2022/09/15 04:13:20;;;;;;;;;;;;;;;;;;2123109;28;19930;-42
2022/09/15 04:14:21;;;;;;;;;;;;;;;;;;2123184;28;20395;-42
2022/09/15 04:15:21;;;;;;;;;;;;;;;;;;2123127;28;20421;-42
2022/09/15 04:16:22;;;;;;;;;;;;;;;;;;2123962;27;19923;-42
2022/09/15 04:17:23;;;;;;;;;;;;;;;;;;2124637;28;19924;-42
2022/09/15 04:18:24;;;;;;;;;;;;;;;;;;2124750;28;19923;-42
2022/09/15 04:19:25;;;;;;;;;;;;;;;;;;2124920;28;20276;-42
2022/09/15 04:20:26;;;;;;;;;;;;;;;;;;2124601;28;19924;-42
2022/09/15 04:21:26;;;;;;;;;;;;;;;;;;2124478;27;19961;-42
2022/09/15 04:22:27;;;;;;;;;;;;;;;;;;2124536;28;19958;-42
2022/09/15 04:23:28;;;;;;;;;;;;;;;;;;2124650;28;19923;-42
2022/09/15 04:24:29;;;;;;;;;;;;;;;;;;2124707;28;20344;-42
2022/09/15 04:25:29;;;;;;;;;;;;;;;;;;2124876;28;19930;-42
2022/09/15 04:26:30;;;;;;;;;;;;;;;;;;2124471;27;19923;-42
2022/09/15 04:27:33;;;;;;;;;;;;;;;;;;2124581;28;19924;-42
2022/09/15 04:28:34;;;;;;;;;;;;;;;;;;2124601;28;19930;-42
2022/09/15 04:29:34;;;;;;;;;;;;;;;;;;2124599;28;19947;-42
2022/09/15 04:30:36;;;;;;;;;;;;;;;;;;2124708;28;20276;-42
2022/09/15 04:31:36;;;;;;;;;;;;;;;;;;2124322;27;19924;-42
2022/09/15 04:32:37;;;;;;;;;;;;;;;;;;2124587;28;19964;-42
2022/09/15 04:33:38;;;;;;;;;;;;;;;;;;2124502;28;19989;-42
2022/09/15 04:34:39;;;;;;;;;;;;;;;;;;2124727;28;19928;-42
2022/09/15 04:35:41;;;;;;;;;;;;;;;;;;2124336;28;19931;-42
2022/09/15 04:36:42;;;;;;;;;;;;;;;;;;2124544;27;20392;-42
2022/09/15 04:37:43;;;;;;;;;;;;;;;;;;2124411;28;19924;-42
2022/09/15 04:38:44;;;;;;;;;;;;;;;;;;2124622;28;19923;-42
2022/09/15 04:39:45;;;;;;;;;;;;;;;;;;2124475;28;20369;-42
2022/09/15 04:40:46;;;;;;;;;;;;;;;;;;2124819;28;19923;-42
2022/09/15 04:41:46;;;;;;;;;;;;;;;;;;2124619;27;19927;-42
2022/09/15 04:42:47;;;;;;;;;;;;;;;;;;2124407;28;19955;-42
2022/09/15 04:43:48;;;;;;;;;;;;;;;;;;2124463;28;19924;-42
2022/09/15 04:44:49;;;;;;;;;;;;;;;;;;2124668;28;20022;-42
2022/09/15 04:45:50;;;;;;;;;;;;;;;;;;2124399;28;20288;-42
2022/09/15 04:46:51;;;;;;;;;;;;;;;;;;2124410;27;19924;-42
2022/09/15 04:47:52;;;;;;;;;;;;;;;;;;2124280;28;20281;-42
2022/09/15 04:48:53;;;;;;;;;;;;;;;;;;2124419;28;20334;-42
2022/09/15 04:49:53;;;;;;;;;;;;;;;;;;2124508;28;19924;-42
2022/09/15 04:50:54;;;;;;;;;;;;;;;;;;2124661;28;20364;-45
2022/09/15 04:51:55;;;;;;;;;;;;;;;;;;2124281;27;19929;-45
2022/09/15 04:52:56;;;;;;;;;;;;;;;;;;2124649;28;20276;-44
2022/09/15 04:53:57;;;;;;;;;;;;;;;;;;2124298;28;19930;-45
2022/09/15 04:54:58;;;;;;;;;;;;;;;;;;2124391;28;19930;-45
2022/09/15 04:55:59;;;;;;;;;;;;;;;;;;2124339;28;19934;-45
2022/09/15 04:57:00;;;;;;;;;;;;;;;;;;2124292;27;20007;-45
2022/09/15 04:58:01;;;;;;;;;;;;;;;;;;2124381;28;20015;-46
2022/09/15 04:59:02;;;;;;;;;;;;;;;;;;2124429;28;20287;-46
2022/09/15 05:00:05;;;;;;;;;;;;;;;;;;2124413;28;19927;-45
2022/09/15 05:01:06;;;;;;;;;;;;;;;;;;2124468;28;19930;-44
2022/09/15 05:02:07;;;;;;;;;;;;;;;;;;2124493;27;19930;-46
2022/09/15 05:03:08;;;;;;;;;;;;;;;;;;2124207;28;19923;-45
2022/09/15 05:04:09;;;;;;;;;;;;;;;;;;2124210;27;20380;-45
2022/09/15 05:05:10;;;;;;;;;;;;;;;;;;2125239;27;20014;-42
2022/09/15 05:06:11;;;;;;;;;;;;;;;;;;2133163;27;20499;-42
2022/09/15 05:07:11;;;;;;;;;;;;;;;;;;2132779;27;20014;-42
2022/09/15 05:08:12;;;;;;;;;;;;;;;;;;2132798;27;19966;-42
2022/09/15 05:09:13;;;;;;;;;;;;;;;;;;2132854;27;19930;-43
2022/09/15 05:10:14;;;;;;;;;;;;;;;;;;2133035;27;20031;-42
2022/09/15 05:11:15;;;;;;;;;;;;;;;;;;2130717;27;19923;-42
2022/09/15 05:12:16;;;;;;;;;;;;;;;;;;2124611;28;20026;-43
2022/09/15 05:13:16;;;;;;;;;;;;;;;;;;2124326;28;20291;-42
2022/09/15 05:14:17;;;;;;;;;;;;;;;;;;2124177;28;19927;-43
2022/09/15 05:15:18;;;;;;;;;;;;;;;;;;2124222;28;19924;-42
2022/09/15 05:16:19;;;;;;;;;;;;;;;;;;2124395;27;20076;-45
2022/09/15 05:17:20;;;;;;;;;;;;;;;;;;2124461;28;19972;-42
2022/09/15 05:18:24;;;;;;;;;;;;;;;;;;2124267;28;19924;-43
2022/09/15 05:19:25;;;;;;;;;;;;;;;;;;2124327;28;19930;-42
2022/09/15 05:20:26;;;;;;;;;;;;;;;;;;2124483;28;19930;-45
2022/09/15 05:21:27;;;;;;;;;;;;;;;;;;2124127;27;19923;-45
2022/09/15 05:22:28;;;;;;;;;;;;;;;;;;2124368;28;19934;-45
2022/09/15 05:23:28;;;;;;;;;;;;;;;;;;2124077;28;19931;-47
2022/09/15 05:24:30;;;;;;;;;;;;;;;;;;2124159;28;20017;-44
2022/09/15 05:25:30;;;;;;;;;;;;;;;;;;2124141;28;20021;-45
2022/09/15 05:26:31;;;;;;;;;;;;;;;;;;2124218;27;19970;-45
2022/09/15 05:27:32;;;;;;;;;;;;;;;;;;2123528;27;20345;-47
2022/09/15 05:28:33;;;;;;;;;;;;;;;;;;2124047;28;19949;-46
2022/09/15 05:29:34;;;;;;;;;;;;;;;;;;2124158;28;19927;-46
2022/09/15 05:30:35;;;;;;;;;;;;;;;;;;2124162;28;20368;-45
2022/09/15 05:31:40;;;;;;;;;;;;;;;;;;2123958;27;19959;-47
2022/09/15 05:32:41;;;;;;;;;;;;;;;;;;2123951;28;20400;-45
2022/09/15 05:33:41;;;;;;;;;;;;;;;;;;2124170;28;19923;-44
2022/09/15 05:34:42;;;;;;;;;;;;;;;;;;2124059;28;19923;-45
2022/09/15 05:35:43;;;;;;;;;;;;;;;;;;2124010;28;19931;-46
2022/09/15 05:36:44;;;;;;;;;;;;;;;;;;2123986;27;19924;-45
2022/09/15 05:37:45;;;;;;;;;;;;;;;;;;2124184;28;19961;-45
2022/09/15 05:38:46;;;;;;;;;;;;;;;;;;2124076;28;19974;-45
2022/09/15 05:39:47;;;;;;;;;;;;;;;;;;2124058;28;19968;-45
2022/09/15 05:40:48;;;;;;;;;;;;;;;;;;2124501;28;19923;-45
2022/09/15 05:41:48;;;;;;;;;;;;;;;;;;2124299;27;20453;-47
2022/09/15 05:42:49;;;;;;;;;;;;;;;;;;2124349;28;20025;-43
2022/09/15 05:43:50;;;;;;;;;;;;;;;;;;2124023;28;19973;-43
2022/09/15 05:44:51;;;;;;;;;;;;;;;;;;2124239;28;19931;-43
2022/09/15 05:45:52;;;;;;;;;;;;;;;;;;2124208;28;19929;-43
2022/09/15 05:46:53;;;;;;;;;;;;;;;;;;2124054;27;19927;-42
2022/09/15 05:47:53;;;;;;;;;;;;;;;;;;2123934;28;20296;-43
2022/09/15 05:48:54;;;;;;;;;;;;;;;;;;2124385;28;19966;-46
2022/09/15 05:49:55;;;;;;;;;;;;;;;;;;2123961;28;20400;-44
2022/09/15 05:50:57;;;;;;;;;;;;;;;;;;2124108;28;19928;-45
2022/09/15 05:51:57;;;;;;;;;;;;;;;;;;2123864;27;19924;-46
2022/09/15 05:52:58;;;;;;;;;;;;;;;;;;2124292;28;20125;-45
2022/09/15 05:53:59;;;;;;;;;;;;;;;;;;2123899;28;19928;-47
2022/09/15 05:55:00;;;;;;;;;;;;;;;;;;2124029;28;20276;-46
2022/09/15 05:56:01;;;;;;;;;;;;;;;;;;2124284;28;20030;-43
2022/09/15 05:57:02;;;;;;;;;;;;;;;;;;2123845;27;19924;-43
2022/09/15 05:58:03;;;;;;;;;;;;;;;;;;2124044;28;19930;-43
2022/09/15 05:59:04;;;;;;;;;;;;;;;;;;2123920;28;20007;-43
2022/09/15 06:00:05;;;;;;;;;;;;;;;;;;2123757;27;20014;-43
2022/09/15 06:01:06;;;;;;;;;;;;;;;;;;2123837;28;20452;-43
2022/09/15 06:02:07;;;;;;;;;;;;;;;;;;2130689;27;19923;-43
2022/09/15 06:03:08;;;;;;;;;;;;;;;;;;2132559;27;19923;-43
2022/09/15 06:04:09;;;;;;;;;;;;;;;;;;2132451;27;19928;-43
2022/09/15 06:05:10;;;;;;;;;;;;;;;;;;2132592;27;19938;-43
2022/09/15 06:06:11;;;;;;;;;;;;;;;;;;2132631;27;20430;-43
2022/09/15 06:07:12;;;;;;;;;;;;;;;;;;2132497;27;19967;-43
2022/09/15 06:08:13;;;;;;;;;;;;;;;;;;2132644;27;20337;-46
2022/09/15 06:09:14;;;;;;;;;;;;;;;;;;2132776;27;19930;-46
2022/09/15 06:10:15;;;;;;;;;;;;;;;;;;2132807;27;19923;-45
2022/09/15 06:11:16;;;;;;;;;;;;;;;;;;2129885;27;19923;-46
2022/09/15 06:12:17;;;;;;;;;;;;;;;;;;2123806;28;20404;-46
2022/09/15 06:13:18;;;;;;;;;;;;;;;;;;2123811;28;19924;-46
2022/09/15 06:14:19;;;;;;;;;;;;;;;;;;2124000;28;20030;-45
2022/09/15 06:15:20;;;;;;;;;;;;;;;;;;2123823;28;19930;-45
2022/09/15 06:16:21;;;;;;;;;;;;;;;;;;2123951;27;19930;-43
2022/09/15 06:17:22;;;;;;;;;;;;;;;;;;2123729;28;19996;-43
2022/09/15 06:18:23;;;;;;;;;;;;;;;;;;2124138;28;19992;-46
2022/09/15 06:19:24;;;;;;;;;;;;;;;;;;2124187;28;19997;-41
2022/09/15 06:20:24;;;;;;;;;;;;;;;;;;2124113;28;20276;-43
2022/09/15 06:21:25;;;;;;;;;;;;;;;;;;2123689;27;20207;-47
2022/09/15 06:22:26;;;;;;;;;;;;;;;;;;2123913;28;19958;-45
2022/09/15 06:23:27;;;;;;;;;;;;;;;;;;2123871;28;20440;-46
2022/09/15 06:24:28;;;;;;;;;;;;;;;;;;2123742;28;20098;-45
2022/09/15 06:25:29;;;;;;;;;;;;;;;;;;2123742;28;19934;-46
2022/09/15 06:26:29;;;;;;;;;;;;;;;;;;2123625;27;20291;-46
2022/09/15 06:27:30;;;;;;;;;;;;;;;;;;2123871;28;20018;-47
2022/09/15 06:28:31;;;;;;;;;;;;;;;;;;2123727;28;19963;-45
2022/09/15 06:29:32;;;;;;;;;;;;;;;;;;2123717;28;19928;-45
2022/09/15 06:30:33;;;;;;;;;;;;;;;;;;2123809;28;19991;-46
2022/09/15 06:31:34;;;;;;;;;;;;;;;;;;2123776;27;19993;-46
2022/09/15 06:32:35;;;;;;;;;;;;;;;;;;2123757;28;20785;-47
2022/09/15 06:33:36;;;;;;;;;;;;;;;;;;2123819;28;20269;-45
2022/09/15 06:34:37;;;;;;;;;;;;;;;;;;2123762;28;19924;-46
2022/09/15 06:35:38;;;;;;;;;;;;;;;;;;2123713;28;19923;-46
2022/09/15 06:36:39;;;;;;;;;;;;;;;;;;2123751;27;20041;-46
2022/09/15 06:37:39;;;;;;;;;;;;;;;;;;2123569;28;20395;-46
2022/09/15 06:38:40;;;;;;;;;;;;;;;;;;2123665;28;19924;-47
2022/09/15 06:39:42;;;;;;;;;;;;;;;;;;2123605;27;19930;-46
2022/09/15 06:40:44;;;;;;;;;;;;;;;;;;2123618;28;19927;-46
2022/09/15 06:41:45;;;;;;;;;;;;;;;;;;2123528;27;19924;-45
2022/09/15 06:43:02;;;;;;;;;;;;;;;;;;2123822;28;19939;-43
2022/09/15 06:44:03;;;;;;;;;;;;;;;;;;2123688;28;20460;-43
2022/09/15 06:45:04;;;;;;;;;;;;;;;;;;2123942;28;19991;-43
2022/09/15 06:46:05;;;;;;;;;;;;;;;;;;2123532;28;20312;-43
2022/09/15 06:47:06;;;;;;;;;;;;;;;;;;2123553;27;19924;-43
2022/09/15 06:48:07;;;;;;;;;;;;;;;;;;2123578;28;20425;-43
2022/09/15 06:49:24;;;;;;;;;;;;;;;;;;2123793;28;19972;-43
2022/09/15 06:50:25;;;;;;;;;;;;;;;;;;2123695;28;19923;-43
2022/09/15 06:51:27;;;;;;;;;;;;;;;;;;2123639;27;19967;-43
2022/09/15 06:52:28;;;;;;;;;;;;;;;;;;2123603;28;19957;-43
2022/09/15 06:53:29;;;;;;;;;;;;;;;;;;2123496;28;20105;-43
2022/09/15 06:54:30;;;;;;;;;;;;;;;;;;2123752;28;19923;-43
2022/09/15 06:55:31;;;;;;;;;;;;;;;;;;2123713;28;19930;-43
2022/09/15 06:56:32;;;;;;;;;;;;;;;;;;2123487;27;20338;-43
2022/09/15 06:57:38;;;;;;;;;;;;;;;;;;2124031;27;19927;-43
2022/09/15 06:58:39;;;;;;;;;;;;;;;;;;2132222;27;19974;-43
2022/09/15 06:59:39;;;;;;;;;;;;;;;;;;2132129;27;19923;-43